עמוד ראשי
METAR-TAF:

METAR-TAF

שדות תעופה :

Wrangell, אלסקה, ארצות הברית

קו רוחב: 56-29N, קו אורך: 132-22W, גובה: 13מטר

תצפית מזג אוויר נוכחית

הדו"ח נערך לפני 5 שעות ו 17דקות, בשעה 05:56 UTC
רוח 4קשר מכיוון דרום-מזרח
טמפרטורת 13 צלסיוס
לחות 94%
לחץ 1014 hPa
ראות: 16.1קילומטר
מעט עננים בגובה 900רגל
עננים בינוניים בגובה 4400רגל
מעונן בגובה 6000רגל

METAR: PAWG 240556Z 13004KT 10SM FEW009 BKN044 OVC060 13/12 A2993

זמן: 03:13 (11:13 UTC)

תחזית

הדו"ח נערך לפני 5 שעות ו 34דקות, בשעה 05:39 UTC
תחזית בתוקף מ 24 ב 06 UTC עד 25 ב 06 UTC
רוח קשר מכיוון צפון
ראות: 10קילומטר
מעט עננים בגובה 1200רגל
מעונן בגובה 5000רגל
מ 24 ב 0900UTC
רוח 3קשר עם כיוונים משתנים
ראות: 9.7קילומטר
מעונן בגובה 2500רגל
גשם קל, אד
מ 24 ב 1700UTC
רוח 4קשר עם כיוונים משתנים
ראות: 10קילומטר
עננים פזורים בגובה 2500רגל
מעונן בגובה 5000רגל

TAF: PAWG 240539Z 2406/2506 00000KT P6SM FEW012 OVC050 FM240900 VRB03KT 6SM -RA BR OVC025 FM241700 VRB04KT P6SM SCT025 OVC050 AMD NOT SKED 2406/2415

תצפיות ותחזיות מזג אוויר לגבי יותר מ- 4,000 שדות תעופה ברחבי העולם. דוחות METAR ו- TAF.

התחנות הזמינות מסומנות בנקודות צהובות ואדומות על גבי המפה.

העבר את העכבר לנקודה הצבעונית על מנת לראות את שם התחנה.

לאחר מכן, לחץ כדי לראות את תוכן ואת תחזיות מזג האוויר.

כדי לשנות את המפה: לחץ על הכפתורים הירוקים עם הפלוס השחור כדי להתקרב; על הכפתור הירוק עם המקף כדי להתרחק; או בחיצים הירוקים למפות סמוכות.


METAR-TAF: